Mobile, AL (36695)

2:56 PM CST on February 10, 2016 (GMT -0600)
Champion Hills S/D | | Change Station
CLOSE
Current Station
Personal Weather Station
Location: Mobile, AL
Elevation: 154 ft
Nearby Weather Stations

Elev 154 ft 30.61 °N, 88.26 °W | Updated 5 minutes ago

Partly Cloudy
Partly Cloudy
55.4 °F
Feels Like 55.4 °F
N
6.0
Wind Variable Wind from NW
Gusts 7.0 mph

Today
High -- | Low -- °F
--% Chance of Precip.
Yesterday
High -- | Low -- °F
Precip. -- in
Pressure 30.27 in
Visibility 10.0 miles
Clouds Few 1000 ft
Dew Point 18 °F
Humidity 23%
Rainfall 0.00 in
Snow Depth Not available.
6:38 AM 5:36 PM
Waxing Crescent, 7% visible
METAR KMOB 101956Z 28009KT 10SM FEW010 12/M09 A3027 RMK AO2 SLP249 FU FEW010 T01171089
Pressure 30.27 in
Visibility 10.0 miles
Clouds Few 1000 ft
Dew Point 18 °F
Humidity 23%
Rainfall 0.00 in
Snow Depth Not available.
6:38 AM 5:36 PM
Waxing Crescent, 7% visible
METAR KMOB 101956Z 28009KT 10SM FEW010 12/M09 A3027 RMK AO2 SLP249 FU FEW010 T01171089

10-Day Weather Forecast

Almanac

Astronomy

Feb. 10, 2016 Rise Set
Actual Time
Civil Twilight
Nautical Twilight
Astronomical Twilight
Moon
Length of Visible Light
Length of Day
Tomorrow will be .
, % of the Moon is Illuminated

Today's Extremes

State Highs State Lows

Community

WunderPhotos

Upload Photos

1,891,945 photos uploaded!

WunderBlog® & News

Nearby

Air Quality

  Air Quality AQ Index Pollutant
Not available.

Snow Depth

Station Depth Elevation

Earthquake Activity

City Distance Mag. Time & Date
Minimum magnitude displayed is 2.5.

Coastal Water Temperatures

Place Temperature

Stations

Nearby Weather Stations

Station Location Temp. Windchill Dew Point Humidity Wind Precip. Elev Updated Type
                   

Watches & Warnings

There are currently no watches in effect.